sensor_id;sensor_type;location;lat;lon;timestamp;P1;durP1;ratioP1;P2;durP2;ratioP2
13404;SDS011;6773;51.192;7.024;2023-08-12T00:01:13;26.20;;;17.52;;
13404;SDS011;6773;51.192;7.024;2023-08-12T00:03:39;27.42;;;18.13;;
13404;SDS011;6773;51.192;7.024;2023-08-12T00:06:05;22.27;;;16.38;;
13404;SDS011;6773;51.192;7.024;2023-08-12T00:08:31;21.35;;;17.52;;
13404;SDS011;6773;51.192;7.024;2023-08-12T00:10:57;24.40;;;17.92;;
13404;SDS011;6773;51.192;7.024;2023-08-12T00:13:23;30.02;;;18.80;;
13404;SDS011;6773;51.192;7.024;2023-08-12T00:16:00;26.00;;;18.98;;
13404;SDS011;6773;51.192;7.024;2023-08-12T00:18:26;25.65;;;17.58;;
13404;SDS011;6773;51.192;7.024;2023-08-12T00:20:52;25.65;;;18.60;;
13404;SDS011;6773;51.192;7.024;2023-08-12T00:23:18;24.60;;;17.23;;
13404;SDS011;6773;51.192;7.024;2023-08-12T00:25:44;27.45;;;19.95;;
13404;SDS011;6773;51.192;7.024;2023-08-12T00:28:10;27.38;;;18.55;;
13404;SDS011;6773;51.192;7.024;2023-08-12T00:30:36;27.65;;;19.33;;
13404;SDS011;6773;51.192;7.024;2023-08-12T00:33:02;30.23;;;20.83;;
13404;SDS011;6773;51.192;7.024;2023-08-12T00:35:28;29.77;;;19.88;;
13404;SDS011;6773;51.192;7.024;2023-08-12T00:37:54;28.00;;;20.55;;
13404;SDS011;6773;51.192;7.024;2023-08-12T00:40:20;29.48;;;21.75;;
13404;SDS011;6773;51.192;7.024;2023-08-12T00:42:46;30.23;;;21.65;;
13404;SDS011;6773;51.192;7.024;2023-08-12T00:45:12;27.20;;;20.45;;
13404;SDS011;6773;51.192;7.024;2023-08-12T00:47:38;30.30;;;20.58;;
13404;SDS011;6773;51.192;7.024;2023-08-12T00:50:05;28.58;;;19.05;;
13404;SDS011;6773;51.192;7.024;2023-08-12T00:52:32;26.23;;;18.80;;
13404;SDS011;6773;51.192;7.024;2023-08-12T00:54:58;28.60;;;19.23;;
13404;SDS011;6773;51.192;7.024;2023-08-12T00:57:24;26.90;;;18.67;;
13404;SDS011;6773;51.192;7.024;2023-08-12T00:59:50;26.67;;;19.08;;
13404;SDS011;6773;51.192;7.024;2023-08-12T01:02:16;25.38;;;17.55;;
13404;SDS011;6773;51.192;7.024;2023-08-12T01:04:42;24.25;;;17.05;;
13404;SDS011;6773;51.192;7.024;2023-08-12T01:07:08;24.98;;;17.80;;
13404;SDS011;6773;51.192;7.024;2023-08-12T01:09:34;20.90;;;16.05;;
13404;SDS011;6773;51.192;7.024;2023-08-12T01:12:09;22.20;;;17.20;;
13404;SDS011;6773;51.192;7.024;2023-08-12T01:15:10;24.70;;;17.67;;
13404;SDS011;6773;51.192;7.024;2023-08-12T01:17:36;24.45;;;17.92;;
13404;SDS011;6773;51.192;7.024;2023-08-12T01:20:06;19.88;;;14.88;;
13404;SDS011;6773;51.192;7.024;2023-08-12T01:22:37;18.55;;;14.13;;
13404;SDS011;6773;51.192;7.024;2023-08-12T01:25:07;17.63;;;13.68;;
13404;SDS011;6773;51.192;7.024;2023-08-12T01:27:34;18.85;;;14.38;;
13404;SDS011;6773;51.192;7.024;2023-08-12T01:30:01;20.15;;;14.77;;
13404;SDS011;6773;51.192;7.024;2023-08-12T01:32:34;17.63;;;13.52;;
13404;SDS011;6773;51.192;7.024;2023-08-12T01:37:34;16.23;;;12.73;;
13404;SDS011;6773;51.192;7.024;2023-08-12T01:40:01;16.50;;;11.30;;
13404;SDS011;6773;51.192;7.024;2023-08-12T01:42:33;17.27;;;11.88;;
13404;SDS011;6773;51.192;7.024;2023-08-12T01:44:59;14.07;;;12.45;;
13404;SDS011;6773;51.192;7.024;2023-08-12T01:47:26;19.35;;;12.50;;
13404;SDS011;6773;51.192;7.024;2023-08-12T01:49:52;19.05;;;13.77;;
13404;SDS011;6773;51.192;7.024;2023-08-12T01:52:18;19.75;;;13.55;;
13404;SDS011;6773;51.192;7.024;2023-08-12T01:54:44;25.85;;;17.85;;
13404;SDS011;6773;51.192;7.024;2023-08-12T01:57:10;26.17;;;17.38;;
13404;SDS011;6773;51.192;7.024;2023-08-12T01:59:37;20.83;;;15.68;;
13404;SDS011;6773;51.192;7.024;2023-08-12T02:02:03;23.60;;;15.80;;
13404;SDS011;6773;51.192;7.024;2023-08-12T02:04:29;21.05;;;13.98;;
13404;SDS011;6773;51.192;7.024;2023-08-12T02:06:55;22.33;;;14.57;;
13404;SDS011;6773;51.192;7.024;2023-08-12T02:09:21;17.33;;;14.45;;
13404;SDS011;6773;51.192;7.024;2023-08-12T02:11:48;20.65;;;14.18;;
13404;SDS011;6773;51.192;7.024;2023-08-12T02:14:14;19.63;;;15.20;;
13404;SDS011;6773;51.192;7.024;2023-08-12T02:16:40;20.25;;;13.20;;
13404;SDS011;6773;51.192;7.024;2023-08-12T02:19:06;17.70;;;13.77;;
13404;SDS011;6773;51.192;7.024;2023-08-12T02:21:32;18.60;;;13.48;;
13404;SDS011;6773;51.192;7.024;2023-08-12T02:23:58;18.15;;;13.20;;
13404;SDS011;6773;51.192;7.024;2023-08-12T02:26:24;19.75;;;12.85;;
13404;SDS011;6773;51.192;7.024;2023-08-12T02:28:50;15.48;;;12.65;;
13404;SDS011;6773;51.192;7.024;2023-08-12T02:31:16;19.38;;;14.10;;
13404;SDS011;6773;51.192;7.024;2023-08-12T02:33:42;16.98;;;13.27;;
13404;SDS011;6773;51.192;7.024;2023-08-12T02:36:08;16.15;;;13.20;;
13404;SDS011;6773;51.192;7.024;2023-08-12T02:38:34;17.33;;;14.30;;
13404;SDS011;6773;51.192;7.024;2023-08-12T02:41:00;18.02;;;14.05;;
13404;SDS011;6773;51.192;7.024;2023-08-12T02:43:26;15.77;;;13.50;;
13404;SDS011;6773;51.192;7.024;2023-08-12T02:45:52;20.00;;;13.82;;
13404;SDS011;6773;51.192;7.024;2023-08-12T02:48:18;17.55;;;13.35;;
13404;SDS011;6773;51.192;7.024;2023-08-12T02:50:44;16.40;;;12.70;;
13404;SDS011;6773;51.192;7.024;2023-08-12T02:53:10;18.23;;;12.60;;
13404;SDS011;6773;51.192;7.024;2023-08-12T02:55:36;17.92;;;12.55;;
13404;SDS011;6773;51.192;7.024;2023-08-12T02:58:02;17.92;;;12.50;;
13404;SDS011;6773;51.192;7.024;2023-08-12T03:00:28;15.50;;;12.98;;
13404;SDS011;6773;51.192;7.024;2023-08-12T03:02:54;15.15;;;12.13;;
13404;SDS011;6773;51.192;7.024;2023-08-12T03:05:20;15.77;;;12.65;;
13404;SDS011;6773;51.192;7.024;2023-08-12T03:07:46;15.63;;;11.95;;
13404;SDS011;6773;51.192;7.024;2023-08-12T03:10:12;15.18;;;12.00;;
13404;SDS011;6773;51.192;7.024;2023-08-12T03:12:38;16.65;;;12.05;;
13404;SDS011;6773;51.192;7.024;2023-08-12T03:15:08;14.02;;;11.63;;
13404;SDS011;6773;51.192;7.024;2023-08-12T03:17:34;20.00;;;13.05;;
13404;SDS011;6773;51.192;7.024;2023-08-12T03:20:00;13.20;;;11.18;;
13404;SDS011;6773;51.192;7.024;2023-08-12T03:22:30;14.80;;;11.68;;
13404;SDS011;6773;51.192;7.024;2023-08-12T03:24:56;15.60;;;12.32;;
13404;SDS011;6773;51.192;7.024;2023-08-12T03:27:22;15.13;;;11.32;;
13404;SDS011;6773;51.192;7.024;2023-08-12T03:29:48;17.20;;;12.23;;
13404;SDS011;6773;51.192;7.024;2023-08-12T03:32:14;15.30;;;11.55;;
13404;SDS011;6773;51.192;7.024;2023-08-12T03:34:40;15.02;;;11.50;;
13404;SDS011;6773;51.192;7.024;2023-08-12T03:37:06;15.02;;;11.27;;
13404;SDS011;6773;51.192;7.024;2023-08-12T03:39:32;15.40;;;11.75;;
13404;SDS011;6773;51.192;7.024;2023-08-12T03:41:58;17.55;;;12.38;;
13404;SDS011;6773;51.192;7.024;2023-08-12T03:44:24;13.88;;;11.70;;
13404;SDS011;6773;51.192;7.024;2023-08-12T03:46:50;16.10;;;12.25;;
13404;SDS011;6773;51.192;7.024;2023-08-12T03:49:16;14.18;;;12.27;;
13404;SDS011;6773;51.192;7.024;2023-08-12T03:51:42;19.70;;;13.27;;
13404;SDS011;6773;51.192;7.024;2023-08-12T03:54:08;16.35;;;12.70;;
13404;SDS011;6773;51.192;7.024;2023-08-12T03:56:34;17.45;;;13.50;;
13404;SDS011;6773;51.192;7.024;2023-08-12T03:59:00;17.95;;;13.13;;
13404;SDS011;6773;51.192;7.024;2023-08-12T04:01:26;18.42;;;12.77;;
13404;SDS011;6773;51.192;7.024;2023-08-12T04:03:52;16.63;;;13.43;;
13404;SDS011;6773;51.192;7.024;2023-08-12T04:06:18;16.10;;;13.82;;
13404;SDS011;6773;51.192;7.024;2023-08-12T04:08:43;18.00;;;13.40;;
13404;SDS011;6773;51.192;7.024;2023-08-12T04:11:09;20.60;;;14.40;;
13404;SDS011;6773;51.192;7.024;2023-08-12T04:13:35;17.52;;;12.82;;
13404;SDS011;6773;51.192;7.024;2023-08-12T04:16:02;15.88;;;13.05;;
13404;SDS011;6773;51.192;7.024;2023-08-12T04:18:28;18.00;;;12.30;;
13404;SDS011;6773;51.192;7.024;2023-08-12T04:20:53;15.02;;;11.95;;
13404;SDS011;6773;51.192;7.024;2023-08-12T04:23:19;12.55;;;10.55;;
13404;SDS011;6773;51.192;7.024;2023-08-12T04:25:46;15.25;;;10.70;;
13404;SDS011;6773;51.192;7.024;2023-08-12T04:28:12;14.10;;;10.23;;
13404;SDS011;6773;51.192;7.024;2023-08-12T04:30:42;11.43;;;8.82;;
13404;SDS011;6773;51.192;7.024;2023-08-12T04:33:08;11.85;;;10.02;;
13404;SDS011;6773;51.192;7.024;2023-08-12T04:35:34;12.95;;;9.10;;
13404;SDS011;6773;51.192;7.024;2023-08-12T04:38:00;11.02;;;9.70;;
13404;SDS011;6773;51.192;7.024;2023-08-12T04:40:26;13.38;;;9.50;;
13404;SDS011;6773;51.192;7.024;2023-08-12T04:42:52;12.20;;;9.38;;
13404;SDS011;6773;51.192;7.024;2023-08-12T04:45:18;12.90;;;9.20;;
13404;SDS011;6773;51.192;7.024;2023-08-12T04:47:44;8.93;;;7.88;;
13404;SDS011;6773;51.192;7.024;2023-08-12T04:50:10;11.38;;;8.48;;
13404;SDS011;6773;51.192;7.024;2023-08-12T04:52:36;13.35;;;8.90;;
13404;SDS011;6773;51.192;7.024;2023-08-12T04:55:02;8.82;;;7.93;;
13404;SDS011;6773;51.192;7.024;2023-08-12T04:57:29;11.35;;;8.40;;
13404;SDS011;6773;51.192;7.024;2023-08-12T04:59:55;13.07;;;9.13;;
13404;SDS011;6773;51.192;7.024;2023-08-12T05:02:21;11.27;;;8.70;;
13404;SDS011;6773;51.192;7.024;2023-08-12T05:04:50;10.38;;;8.63;;
13404;SDS011;6773;51.192;7.024;2023-08-12T05:07:16;9.07;;;8.13;;
13404;SDS011;6773;51.192;7.024;2023-08-12T05:09:43;10.55;;;8.57;;
13404;SDS011;6773;51.192;7.024;2023-08-12T05:12:11;13.35;;;8.93;;
13404;SDS011;6773;51.192;7.024;2023-08-12T05:14:38;9.82;;;8.32;;
13404;SDS011;6773;51.192;7.024;2023-08-12T05:17:05;11.80;;;8.63;;
13404;SDS011;6773;51.192;7.024;2023-08-12T05:19:31;11.15;;;9.00;;
13404;SDS011;6773;51.192;7.024;2023-08-12T05:21:57;11.02;;;8.70;;
13404;SDS011;6773;51.192;7.024;2023-08-12T05:24:23;9.52;;;8.07;;
13404;SDS011;6773;51.192;7.024;2023-08-12T05:26:49;11.43;;;8.77;;
13404;SDS011;6773;51.192;7.024;2023-08-12T05:29:15;9.23;;;8.27;;
13404;SDS011;6773;51.192;7.024;2023-08-12T05:31:41;11.13;;;8.85;;
13404;SDS011;6773;51.192;7.024;2023-08-12T05:34:07;12.10;;;9.50;;
13404;SDS011;6773;51.192;7.024;2023-08-12T05:36:33;10.00;;;8.13;;
13404;SDS011;6773;51.192;7.024;2023-08-12T05:38:59;10.65;;;7.90;;
13404;SDS011;6773;51.192;7.024;2023-08-12T05:41:25;10.60;;;8.02;;
13404;SDS011;6773;51.192;7.024;2023-08-12T05:43:51;8.15;;;7.18;;
13404;SDS011;6773;51.192;7.024;2023-08-12T05:46:17;9.52;;;8.27;;
13404;SDS011;6773;51.192;7.024;2023-08-12T05:48:43;10.40;;;7.88;;
13404;SDS011;6773;51.192;7.024;2023-08-12T05:51:09;13.27;;;7.80;;
13404;SDS011;6773;51.192;7.024;2023-08-12T05:53:35;8.13;;;6.88;;
13404;SDS011;6773;51.192;7.024;2023-08-12T05:56:01;8.10;;;7.13;;
13404;SDS011;6773;51.192;7.024;2023-08-12T05:58:27;8.73;;;6.65;;
13404;SDS011;6773;51.192;7.024;2023-08-12T06:00:53;8.38;;;6.65;;
13404;SDS011;6773;51.192;7.024;2023-08-12T06:03:19;7.53;;;6.82;;
13404;SDS011;6773;51.192;7.024;2023-08-12T06:05:45;7.75;;;6.47;;
13404;SDS011;6773;51.192;7.024;2023-08-12T06:08:12;7.93;;;6.85;;
13404;SDS011;6773;51.192;7.024;2023-08-12T06:10:38;9.38;;;6.93;;
13404;SDS011;6773;51.192;7.024;2023-08-12T06:13:04;7.88;;;6.80;;
13404;SDS011;6773;51.192;7.024;2023-08-12T06:15:30;10.68;;;7.38;;
13404;SDS011;6773;51.192;7.024;2023-08-12T06:17:56;10.98;;;7.60;;
13404;SDS011;6773;51.192;7.024;2023-08-12T06:20:25;10.57;;;7.47;;
13404;SDS011;6773;51.192;7.024;2023-08-12T06:22:51;11.30;;;8.45;;
13404;SDS011;6773;51.192;7.024;2023-08-12T06:25:17;9.45;;;7.82;;
13404;SDS011;6773;51.192;7.024;2023-08-12T06:27:44;9.30;;;7.32;;
13404;SDS011;6773;51.192;7.024;2023-08-12T06:30:10;8.88;;;7.60;;
13404;SDS011;6773;51.192;7.024;2023-08-12T06:32:36;9.55;;;8.07;;
13404;SDS011;6773;51.192;7.024;2023-08-12T06:35:02;9.80;;;7.93;;
13404;SDS011;6773;51.192;7.024;2023-08-12T06:37:29;10.05;;;8.68;;
13404;SDS011;6773;51.192;7.024;2023-08-12T06:39:54;10.45;;;8.38;;
13404;SDS011;6773;51.192;7.024;2023-08-12T06:42:21;9.38;;;8.40;;
13404;SDS011;6773;51.192;7.024;2023-08-12T06:44:53;9.50;;;7.85;;
13404;SDS011;6773;51.192;7.024;2023-08-12T06:47:23;8.35;;;7.40;;
13404;SDS011;6773;51.192;7.024;2023-08-12T06:49:49;9.35;;;8.13;;
13404;SDS011;6773;51.192;7.024;2023-08-12T06:52:15;10.00;;;9.00;;
13404;SDS011;6773;51.192;7.024;2023-08-12T06:54:41;10.23;;;8.48;;
13404;SDS011;6773;51.192;7.024;2023-08-12T06:57:07;12.05;;;9.00;;
13404;SDS011;6773;51.192;7.024;2023-08-12T06:59:33;10.70;;;7.68;;
13404;SDS011;6773;51.192;7.024;2023-08-12T07:01:59;15.40;;;9.52;;
13404;SDS011;6773;51.192;7.024;2023-08-12T07:04:25;12.82;;;9.63;;
13404;SDS011;6773;51.192;7.024;2023-08-12T07:06:51;10.50;;;9.40;;
13404;SDS011;6773;51.192;7.024;2023-08-12T07:09:16;10.88;;;9.77;;
13404;SDS011;6773;51.192;7.024;2023-08-12T07:11:43;10.55;;;9.38;;
13404;SDS011;6773;51.192;7.024;2023-08-12T07:14:08;12.18;;;9.38;;
13404;SDS011;6773;51.192;7.024;2023-08-12T07:16:34;10.77;;;9.25;;
13404;SDS011;6773;51.192;7.024;2023-08-12T07:19:00;12.25;;;8.18;;
13404;SDS011;6773;51.192;7.024;2023-08-12T07:21:26;9.45;;;7.70;;
13404;SDS011;6773;51.192;7.024;2023-08-12T07:23:52;10.40;;;7.80;;
13404;SDS011;6773;51.192;7.024;2023-08-12T07:26:19;9.32;;;8.35;;
13404;SDS011;6773;51.192;7.024;2023-08-12T07:28:44;7.93;;;7.05;;
13404;SDS011;6773;51.192;7.024;2023-08-12T07:31:10;8.90;;;7.47;;
13404;SDS011;6773;51.192;7.024;2023-08-12T07:33:37;9.73;;;8.02;;
13404;SDS011;6773;51.192;7.024;2023-08-12T07:36:03;8.80;;;7.90;;
13404;SDS011;6773;51.192;7.024;2023-08-12T07:38:29;9.52;;;8.10;;
13404;SDS011;6773;51.192;7.024;2023-08-12T07:40:55;9.68;;;7.53;;
13404;SDS011;6773;51.192;7.024;2023-08-12T07:43:21;10.77;;;7.75;;
13404;SDS011;6773;51.192;7.024;2023-08-12T07:45:50;8.95;;;8.02;;
13404;SDS011;6773;51.192;7.024;2023-08-12T07:48:17;10.77;;;7.65;;
13404;SDS011;6773;51.192;7.024;2023-08-12T07:50:43;8.90;;;8.10;;
13404;SDS011;6773;51.192;7.024;2023-08-12T07:53:09;8.70;;;7.90;;
13404;SDS011;6773;51.192;7.024;2023-08-12T07:55:35;8.40;;;7.50;;
13404;SDS011;6773;51.192;7.024;2023-08-12T07:58:01;9.50;;;8.35;;
13404;SDS011;6773;51.192;7.024;2023-08-12T08:00:29;9.60;;;8.02;;
13404;SDS011;6773;51.192;7.024;2023-08-12T08:02:55;10.90;;;8.90;;
13404;SDS011;6773;51.192;7.024;2023-08-12T08:05:21;10.38;;;8.32;;
13404;SDS011;6773;51.192;7.024;2023-08-12T08:07:47;9.45;;;8.52;;
13404;SDS011;6773;51.192;7.024;2023-08-12T08:10:13;11.63;;;9.57;;
13404;SDS011;6773;51.192;7.024;2023-08-12T08:12:39;11.90;;;10.32;;
13404;SDS011;6773;51.192;7.024;2023-08-12T08:15:05;11.27;;;10.15;;
13404;SDS011;6773;51.192;7.024;2023-08-12T08:17:31;10.35;;;9.23;;
13404;SDS011;6773;51.192;7.024;2023-08-12T08:19:57;12.10;;;9.80;;
13404;SDS011;6773;51.192;7.024;2023-08-12T08:22:23;9.85;;;8.85;;
13404;SDS011;6773;51.192;7.024;2023-08-12T08:24:49;10.75;;;9.68;;
13404;SDS011;6773;51.192;7.024;2023-08-12T08:27:16;10.68;;;9.00;;
13404;SDS011;6773;51.192;7.024;2023-08-12T08:29:42;7.57;;;6.85;;
13404;SDS011;6773;51.192;7.024;2023-08-12T08:32:08;7.95;;;7.20;;
13404;SDS011;6773;51.192;7.024;2023-08-12T08:34:34;7.90;;;6.43;;
13404;SDS011;6773;51.192;7.024;2023-08-12T08:37:00;8.25;;;7.20;;
13404;SDS011;6773;51.192;7.024;2023-08-12T08:39:26;6.72;;;6.03;;
13404;SDS011;6773;51.192;7.024;2023-08-12T08:41:52;7.25;;;5.93;;
13404;SDS011;6773;51.192;7.024;2023-08-12T08:44:19;6.40;;;5.80;;
13404;SDS011;6773;51.192;7.024;2023-08-12T08:46:49;7.47;;;5.72;;
13404;SDS011;6773;51.192;7.024;2023-08-12T08:49:18;7.85;;;5.38;;
13404;SDS011;6773;51.192;7.024;2023-08-12T08:51:45;9.30;;;7.43;;
13404;SDS011;6773;51.192;7.024;2023-08-12T08:54:12;9.07;;;6.75;;
13404;SDS011;6773;51.192;7.024;2023-08-12T08:56:38;10.02;;;5.90;;
13404;SDS011;6773;51.192;7.024;2023-08-12T08:59:04;6.95;;;4.70;;
13404;SDS011;6773;51.192;7.024;2023-08-12T09:01:30;7.80;;;5.20;;
13404;SDS011;6773;51.192;7.024;2023-08-12T09:03:57;4.80;;;4.38;;
13404;SDS011;6773;51.192;7.024;2023-08-12T09:06:26;5.20;;;4.50;;
13404;SDS011;6773;51.192;7.024;2023-08-12T09:08:54;6.57;;;5.07;;
13404;SDS011;6773;51.192;7.024;2023-08-12T09:11:20;5.45;;;4.88;;
13404;SDS011;6773;51.192;7.024;2023-08-12T09:13:47;7.05;;;5.10;;
13404;SDS011;6773;51.192;7.024;2023-08-12T09:16:15;5.43;;;4.88;;
13404;SDS011;6773;51.192;7.024;2023-08-12T09:18:44;22.02;;;9.68;;
13404;SDS011;6773;51.192;7.024;2023-08-12T09:21:10;6.65;;;5.05;;
13404;SDS011;6773;51.192;7.024;2023-08-12T09:23:40;5.07;;;4.65;;
13404;SDS011;6773;51.192;7.024;2023-08-12T09:26:10;5.60;;;4.40;;
13404;SDS011;6773;51.192;7.024;2023-08-12T09:28:36;6.40;;;4.30;;
13404;SDS011;6773;51.192;7.024;2023-08-12T09:31:02;6.35;;;4.82;;
13404;SDS011;6773;51.192;7.024;2023-08-12T09:33:28;5.07;;;4.47;;
13404;SDS011;6773;51.192;7.024;2023-08-12T09:35:54;5.25;;;4.75;;
13404;SDS011;6773;51.192;7.024;2023-08-12T09:38:23;4.90;;;4.40;;
13404;SDS011;6773;51.192;7.024;2023-08-12T09:40:51;5.03;;;4.53;;
13404;SDS011;6773;51.192;7.024;2023-08-12T09:43:19;6.63;;;4.60;;
13404;SDS011;6773;51.192;7.024;2023-08-12T09:45:48;4.97;;;4.13;;
13404;SDS011;6773;51.192;7.024;2023-08-12T09:48:16;5.32;;;4.15;;
13404;SDS011;6773;51.192;7.024;2023-08-12T09:50:42;5.28;;;4.30;;
13404;SDS011;6773;51.192;7.024;2023-08-12T09:53:08;8.23;;;4.60;;
13404;SDS011;6773;51.192;7.024;2023-08-12T09:55:34;4.28;;;3.88;;
13404;SDS011;6773;51.192;7.024;2023-08-12T09:58:01;4.20;;;3.80;;
13404;SDS011;6773;51.192;7.024;2023-08-12T10:00:31;5.20;;;4.32;;
13404;SDS011;6773;51.192;7.024;2023-08-12T10:02:58;4.40;;;4.00;;
13404;SDS011;6773;51.192;7.024;2023-08-12T10:05:30;5.47;;;4.03;;
13404;SDS011;6773;51.192;7.024;2023-08-12T10:07:57;6.35;;;4.45;;
13404;SDS011;6773;51.192;7.024;2023-08-12T10:10:26;7.10;;;4.13;;
13404;SDS011;6773;51.192;7.024;2023-08-12T10:12:53;5.45;;;4.30;;
13404;SDS011;6773;51.192;7.024;2023-08-12T10:15:19;4.00;;;3.47;;
13404;SDS011;6773;51.192;7.024;2023-08-12T10:17:47;4.28;;;3.17;;
13404;SDS011;6773;51.192;7.024;2023-08-12T10:20:23;5.15;;;3.53;;
13404;SDS011;6773;51.192;7.024;2023-08-12T10:22:50;3.67;;;3.13;;
13404;SDS011;6773;51.192;7.024;2023-08-12T10:25:18;5.53;;;3.17;;
13404;SDS011;6773;51.192;7.024;2023-08-12T10:27:46;3.58;;;3.25;;
13404;SDS011;6773;51.192;7.024;2023-08-12T10:30:12;7.05;;;2.83;;
13404;SDS011;6773;51.192;7.024;2023-08-12T10:32:38;4.90;;;3.10;;
13404;SDS011;6773;51.192;7.024;2023-08-12T10:35:04;3.63;;;2.72;;
13404;SDS011;6773;51.192;7.024;2023-08-12T10:37:32;5.63;;;2.85;;
13404;SDS011;6773;51.192;7.024;2023-08-12T10:39:58;3.90;;;3.10;;
13404;SDS011;6773;51.192;7.024;2023-08-12T10:42:44;4.93;;;3.15;;
13404;SDS011;6773;51.192;7.024;2023-08-12T10:45:11;3.92;;;2.85;;
13404;SDS011;6773;51.192;7.024;2023-08-12T10:47:41;2.83;;;2.63;;
13404;SDS011;6773;51.192;7.024;2023-08-12T10:50:21;3.90;;;2.83;;
13404;SDS011;6773;51.192;7.024;2023-08-12T10:52:48;3.17;;;2.88;;
13404;SDS011;6773;51.192;7.024;2023-08-12T10:55:17;4.00;;;2.65;;
13404;SDS011;6773;51.192;7.024;2023-08-12T10:57:46;3.03;;;2.80;;
13404;SDS011;6773;51.192;7.024;2023-08-12T11:00:16;2.95;;;2.63;;
13404;SDS011;6773;51.192;7.024;2023-08-12T11:02:45;3.33;;;2.88;;
13404;SDS011;6773;51.192;7.024;2023-08-12T11:05:14;3.75;;;2.85;;
13404;SDS011;6773;51.192;7.024;2023-08-12T11:07:43;3.40;;;3.10;;
13404;SDS011;6773;51.192;7.024;2023-08-12T11:12:36;3.67;;;2.85;;
13404;SDS011;6773;51.192;7.024;2023-08-12T11:15:03;2.63;;;2.42;;
13404;SDS011;6773;51.192;7.024;2023-08-12T11:17:31;3.40;;;2.92;;
13404;SDS011;6773;51.192;7.024;2023-08-12T11:19:57;3.70;;;2.72;;
13404;SDS011;6773;51.192;7.024;2023-08-12T11:22:25;3.85;;;3.03;;
13404;SDS011;6773;51.192;7.024;2023-08-12T11:24:51;3.78;;;3.38;;
13404;SDS011;6773;51.192;7.024;2023-08-12T11:27:17;3.70;;;2.75;;
13404;SDS011;6773;51.192;7.024;2023-08-12T11:29:43;3.00;;;2.70;;
13404;SDS011;6773;51.192;7.024;2023-08-12T11:32:09;3.60;;;3.30;;
13404;SDS011;6773;51.192;7.024;2023-08-12T11:34:35;3.95;;;2.63;;
13404;SDS011;6773;51.192;7.024;2023-08-12T11:37:02;2.45;;;2.25;;
13404;SDS011;6773;51.192;7.024;2023-08-12T11:39:28;2.65;;;2.20;;
13404;SDS011;6773;51.192;7.024;2023-08-12T11:41:55;3.47;;;2.70;;
13404;SDS011;6773;51.192;7.024;2023-08-12T11:44:22;3.28;;;2.97;;
13404;SDS011;6773;51.192;7.024;2023-08-12T11:46:48;3.17;;;2.88;;
13404;SDS011;6773;51.192;7.024;2023-08-12T11:49:14;3.25;;;2.88;;
13404;SDS011;6773;51.192;7.024;2023-08-12T11:51:41;3.25;;;2.88;;
13404;SDS011;6773;51.192;7.024;2023-08-12T11:54:08;3.53;;;2.97;;
13404;SDS011;6773;51.192;7.024;2023-08-12T11:56:33;3.97;;;2.97;;
13404;SDS011;6773;51.192;7.024;2023-08-12T11:58:59;3.95;;;2.38;;
13404;SDS011;6773;51.192;7.024;2023-08-12T12:01:25;3.38;;;3.08;;
13404;SDS011;6773;51.192;7.024;2023-08-12T12:03:53;3.22;;;2.92;;
13404;SDS011;6773;51.192;7.024;2023-08-12T12:06:37;3.25;;;2.95;;
13404;SDS011;6773;51.192;7.024;2023-08-12T12:09:05;4.05;;;3.10;;
13404;SDS011;6773;51.192;7.024;2023-08-12T12:11:32;3.75;;;3.30;;
13404;SDS011;6773;51.192;7.024;2023-08-12T12:14:02;3.67;;;3.38;;
13404;SDS011;6773;51.192;7.024;2023-08-12T12:16:47;4.38;;;3.97;;
13404;SDS011;6773;51.192;7.024;2023-08-12T12:19:17;3.67;;;3.28;;
13404;SDS011;6773;51.192;7.024;2023-08-12T12:21:47;3.65;;;3.20;;
13404;SDS011;6773;51.192;7.024;2023-08-12T12:24:13;2.85;;;2.63;;
13404;SDS011;6773;51.192;7.024;2023-08-12T12:26:40;3.05;;;2.75;;
13404;SDS011;6773;51.192;7.024;2023-08-12T12:29:06;2.50;;;2.30;;
13404;SDS011;6773;51.192;7.024;2023-08-12T12:31:33;4.00;;;2.10;;
13404;SDS011;6773;51.192;7.024;2023-08-12T12:34:00;2.00;;;1.90;;
13404;SDS011;6773;51.192;7.024;2023-08-12T12:36:26;2.17;;;1.95;;
13404;SDS011;6773;51.192;7.024;2023-08-12T12:38:52;5.25;;;2.20;;
13404;SDS011;6773;51.192;7.024;2023-08-12T12:41:18;2.15;;;1.80;;
13404;SDS011;6773;51.192;7.024;2023-08-12T12:43:44;3.40;;;1.73;;
13404;SDS011;6773;51.192;7.024;2023-08-12T12:46:10;2.25;;;1.77;;
13404;SDS011;6773;51.192;7.024;2023-08-12T12:48:36;2.15;;;1.95;;
13404;SDS011;6773;51.192;7.024;2023-08-12T12:51:02;3.75;;;1.85;;
13404;SDS011;6773;51.192;7.024;2023-08-12T12:53:28;4.05;;;2.05;;
13404;SDS011;6773;51.192;7.024;2023-08-12T12:55:54;2.72;;;2.00;;
13404;SDS011;6773;51.192;7.024;2023-08-12T12:58:22;1.70;;;1.60;;
13404;SDS011;6773;51.192;7.024;2023-08-12T13:00:48;3.42;;;1.65;;
13404;SDS011;6773;51.192;7.024;2023-08-12T13:03:14;2.13;;;1.83;;
13404;SDS011;6773;51.192;7.024;2023-08-12T13:05:40;1.60;;;1.50;;
13404;SDS011;6773;51.192;7.024;2023-08-12T13:08:06;2.25;;;1.40;;
13404;SDS011;6773;51.192;7.024;2023-08-12T13:10:33;1.65;;;1.55;;
13404;SDS011;6773;51.192;7.024;2023-08-12T13:12:58;1.63;;;1.52;;
13404;SDS011;6773;51.192;7.024;2023-08-12T13:15:24;2.90;;;1.40;;
13404;SDS011;6773;51.192;7.024;2023-08-12T13:17:51;1.92;;;1.70;;
13404;SDS011;6773;51.192;7.024;2023-08-12T13:20:17;3.90;;;2.45;;
13404;SDS011;6773;51.192;7.024;2023-08-12T13:22:43;6.63;;;2.50;;
13404;SDS011;6773;51.192;7.024;2023-08-12T13:25:09;3.08;;;2.20;;
13404;SDS011;6773;51.192;7.024;2023-08-12T13:27:35;3.83;;;2.42;;
13404;SDS011;6773;51.192;7.024;2023-08-12T13:30:01;3.33;;;3.00;;
13404;SDS011;6773;51.192;7.024;2023-08-12T13:32:29;7.88;;;4.20;;
13404;SDS011;6773;51.192;7.024;2023-08-12T13:34:55;4.43;;;4.03;;
13404;SDS011;6773;51.192;7.024;2023-08-12T13:37:21;5.80;;;4.90;;
13404;SDS011;6773;51.192;7.024;2023-08-12T13:39:47;5.95;;;5.38;;
13404;SDS011;6773;51.192;7.024;2023-08-12T13:42:13;6.40;;;5.78;;
13404;SDS011;6773;51.192;7.024;2023-08-12T13:44:39;6.40;;;5.80;;
13404;SDS011;6773;51.192;7.024;2023-08-12T13:47:05;6.13;;;5.47;;
13404;SDS011;6773;51.192;7.024;2023-08-12T13:49:31;6.22;;;5.32;;
13404;SDS011;6773;51.192;7.024;2023-08-12T13:51:57;7.57;;;5.43;;
13404;SDS011;6773;51.192;7.024;2023-08-12T13:54:24;7.35;;;6.60;;
13404;SDS011;6773;51.192;7.024;2023-08-12T13:56:50;6.22;;;5.68;;
13404;SDS011;6773;51.192;7.024;2023-08-12T13:59:16;7.75;;;6.30;;
13404;SDS011;6773;51.192;7.024;2023-08-12T14:01:42;8.02;;;6.30;;
13404;SDS011;6773;51.192;7.024;2023-08-12T14:04:08;7.68;;;6.88;;
13404;SDS011;6773;51.192;7.024;2023-08-12T14:06:34;7.22;;;6.15;;
13404;SDS011;6773;51.192;7.024;2023-08-12T14:09:00;7.13;;;6.43;;
13404;SDS011;6773;51.192;7.024;2023-08-12T14:11:26;8.02;;;7.22;;
13404;SDS011;6773;51.192;7.024;2023-08-12T14:13:52;6.70;;;6.10;;
13404;SDS011;6773;51.192;7.024;2023-08-12T14:16:17;6.15;;;5.55;;
13404;SDS011;6773;51.192;7.024;2023-08-12T14:18:43;5.97;;;5.18;;
13404;SDS011;6773;51.192;7.024;2023-08-12T14:21:09;5.68;;;5.13;;
13404;SDS011;6773;51.192;7.024;2023-08-12T14:23:35;5.75;;;5.25;;
13404;SDS011;6773;51.192;7.024;2023-08-12T14:26:01;5.40;;;4.90;;
13404;SDS011;6773;51.192;7.024;2023-08-12T14:28:27;4.55;;;4.15;;
13404;SDS011;6773;51.192;7.024;2023-08-12T14:30:54;4.47;;;4.07;;
13404;SDS011;6773;51.192;7.024;2023-08-12T14:33:19;4.30;;;4.00;;
13404;SDS011;6773;51.192;7.024;2023-08-12T14:35:48;4.30;;;3.88;;
13404;SDS011;6773;51.192;7.024;2023-08-12T14:38:14;3.95;;;3.63;;
13404;SDS011;6773;51.192;7.024;2023-08-12T14:40:40;5.22;;;4.68;;
13404;SDS011;6773;51.192;7.024;2023-08-12T14:43:06;3.00;;;2.80;;
13404;SDS011;6773;51.192;7.024;2023-08-12T14:45:32;2.55;;;2.35;;
13404;SDS011;6773;51.192;7.024;2023-08-12T14:47:58;4.15;;;2.20;;
13404;SDS011;6773;51.192;7.024;2023-08-12T14:50:24;2.13;;;2.03;;
13404;SDS011;6773;51.192;7.024;2023-08-12T14:52:50;3.42;;;1.88;;